Honselersdijk, Netherlands
Current Conditions -  °F | °C
As of 12:55 PM on Tuesday 21 Oct 2014 (Local Time) from EHRD Reporting Station
Light Rain Light Rain  
Wind Chill: 55°   Ceiling: 1000
Heat Index: 55°   Visibility: 6mi
Dew Point: 54°   Wind: 21mph
Humidity: 94%   Direction: 210°SSW
Pressure: 29.47"   Gusts: 32mph
Location:  52.01°N, 4.22°E
Report Text: EHRD 211055Z AUTO 21018G28KT 170V240 9999 -RA FEW009 BKN010BKN012 BKN015CB 13/12 Q0998 TEMPO 4000
Loading
Personal Weather Stations






























Interactive Weather Map
Tropical Storm Tracking
New forecast layout! Learn more

10-Day Weather Forecast

Advertisements
Track Severe Weather on mobile